Time;durP1;ratioP1;P1;durP2;ratioP2;P2;SDS_P1;SDS_P2;PMS_P1;PMS_P2;Temp;Humidity;BMP_temperature;BMP_pressure;BME280_temperature;BME280_humidity;BME280_pressure;Samples;Min_cycle;Max_cycle;Signal;HPM_P1;HPM_P2
2020/12/19 00:00:35;;;;;;;8.23;5.53;;;7.40;99.90;;;;;;5036693;28;20202;-80
2020/12/19 00:03:02;;;;;;;9.70;6.40;;;7.50;99.90;;;;;;5042932;28;20205;-79
2020/12/19 00:05:28;;;;;;;10.73;6.27;;;7.40;99.90;;;;;;5030375;28;20200;-79
2020/12/19 00:07:54;;;;;;;9.77;6.27;;;7.30;99.90;;;;;;5037255;28;20207;-79
2020/12/19 00:10:21;;;;;;;9.77;6.17;;;7.30;99.90;;;;;;5020735;28;20531;-79
2020/12/19 00:12:47;;;;;;;10.17;6.17;;;7.40;99.90;;;;;;5040625;28;20200;-80
2020/12/19 00:15:14;;;;;;;8.60;5.80;;;7.40;99.90;;;;;;5023523;28;20277;-80
2020/12/19 00:17:41;;;;;;;9.23;6.13;;;7.40;99.90;;;;;;5038552;28;20241;-79
2020/12/19 00:20:08;;;;;;;9.90;6.50;;;7.30;99.90;;;;;;5022611;28;20259;-79
2020/12/19 00:22:36;;;;;;;8.37;5.97;;;7.00;99.90;;;;;;5036324;28;20238;-79
2020/12/19 00:25:03;;;;;;;8.80;5.57;;;7.00;99.90;;;;;;5025943;28;20258;-81
2020/12/19 00:27:29;;;;;;;9.37;6.33;;;7.10;99.90;;;;;;5023565;28;20232;-81
2020/12/19 00:29:55;;;;;;;10.43;6.43;;;7.10;99.90;;;;;;5012102;28;20643;-81
2020/12/19 00:32:22;;;;;;;10.57;6.13;;;7.00;99.90;;;;;;5013367;28;20209;-79
2020/12/19 00:34:54;;;;;;;7.97;5.40;;;7.00;99.90;;;;;;5017333;28;20212;-80
2020/12/19 00:37:22;;;;;;;8.83;5.63;;;7.00;99.90;;;;;;5020429;28;20261;-82
2020/12/19 00:39:48;;;;;;;8.13;5.87;;;7.10;99.90;;;;;;5021570;28;20588;-81
2020/12/19 00:42:15;;;;;;;8.27;5.97;;;7.10;99.90;;;;;;5016629;28;20653;-81
2020/12/19 00:44:41;;;;;;;8.73;5.67;;;7.10;99.90;;;;;;5041051;28;20227;-82
2020/12/19 00:47:07;;;;;;;8.80;5.90;;;7.10;99.90;;;;;;5023365;28;20228;-83
2020/12/19 00:49:33;;;;;;;11.70;6.70;;;7.00;99.90;;;;;;5027031;28;20198;-81
2020/12/19 00:52:00;;;;;;;11.17;6.80;;;7.00;99.90;;;;;;5007165;28;20489;-81
2020/12/19 00:54:27;;;;;;;9.60;6.13;;;7.00;99.90;;;;;;5030628;28;20204;-83
2020/12/19 00:56:53;;;;;;;10.53;6.83;;;7.00;99.90;;;;;;5013506;28;20658;-83
2020/12/19 00:59:19;;;;;;;7.87;5.93;;;7.10;99.90;;;;;;5012381;28;20689;-83
2020/12/19 01:01:46;;;;;;;11.57;5.97;;;7.10;99.90;;;;;;5012742;28;20206;-81
2020/12/19 01:04:12;;;;;;;9.00;6.20;;;7.00;99.90;;;;;;5019499;28;20247;-83
2020/12/19 01:06:40;;;;;;;12.30;6.77;;;6.90;99.90;;;;;;4997390;28;20196;-81
2020/12/19 01:09:07;;;;;;;10.43;6.43;;;7.00;99.90;;;;;;5032070;28;20198;-81
2020/12/19 01:11:36;;;;;;;10.37;6.20;;;7.10;99.90;;;;;;5024574;28;20686;-81
2020/12/19 01:14:04;;;;;;;9.90;5.77;;;7.10;99.90;;;;;;5029292;28;20279;-81
2020/12/19 01:16:30;;;;;;;10.10;6.73;;;7.10;99.90;;;;;;5016805;28;20276;-79
2020/12/19 01:18:59;;;;;;;9.37;6.30;;;7.20;99.90;;;;;;5026010;28;20251;-81
2020/12/19 01:21:28;;;;;;;12.13;6.67;;;7.20;99.90;;;;;;5016979;28;20369;-81
2020/12/19 01:23:55;;;;;;;7.70;5.80;;;7.20;99.90;;;;;;5028659;28;20202;-79
2020/12/19 01:26:22;;;;;;;11.63;6.40;;;7.30;99.90;;;;;;5037421;28;20641;-82
2020/12/19 01:28:48;;;;;;;9.77;6.40;;;7.30;99.90;;;;;;5024615;28;20216;-80
2020/12/19 01:31:18;;;;;;;9.70;6.27;;;7.30;99.90;;;;;;5023978;28;20240;-80
2020/12/19 01:33:45;;;;;;;8.60;6.00;;;7.30;99.90;;;;;;5021110;28;20219;-81
2020/12/19 01:36:21;;;;;;;10.33;6.87;;;7.30;99.90;;;;;;5014216;28;20216;-81
2020/12/19 01:38:49;;;;;;;9.43;5.97;;;7.30;99.90;;;;;;5016003;28;20605;-82
2020/12/19 01:41:15;;;;;;;12.87;6.60;;;7.30;99.90;;;;;;5026627;28;20196;-81
2020/12/19 01:43:50;;;;;;;10.07;6.13;;;7.30;99.90;;;;;;5010704;28;20247;-80
2020/12/19 01:46:32;;;;;;;11.70;6.30;;;7.50;99.90;;;;;;5031081;28;20196;-80
2020/12/19 01:49:01;;;;;;;10.80;6.20;;;7.50;99.90;;;;;;5046684;28;20200;-81
2020/12/19 01:51:28;;;;;;;12.27;6.10;;;7.50;99.90;;;;;;5031606;28;20237;-80
2020/12/19 01:53:56;;;;;;;9.40;6.60;;;7.50;99.90;;;;;;5026362;28;20207;-80
2020/12/19 01:56:44;;;;;;;11.70;6.50;;;7.50;99.90;;;;;;5051496;28;20199;-79
2020/12/19 01:59:11;;;;;;;10.17;6.43;;;7.50;99.90;;;;;;5029177;28;20490;-81
2020/12/19 02:01:42;;;;;;;11.57;6.30;;;7.50;99.90;;;;;;5017056;28;20208;-82
2020/12/19 02:04:09;;;;;;;9.13;7.03;;;7.50;99.90;;;;;;5032192;28;20634;-80
2020/12/19 02:06:35;;;;;;;9.97;6.17;;;7.40;99.90;;;;;;5022432;28;20229;-79
2020/12/19 02:09:02;;;;;;;12.23;6.87;;;7.40;99.90;;;;;;5028910;28;20243;-81
2020/12/19 02:11:28;;;;;;;11.67;6.67;;;7.50;99.90;;;;;;5029883;28;20709;-80
2020/12/19 02:13:55;;;;;;;11.30;6.87;;;7.40;99.90;;;;;;5035132;28;20627;-78
2020/12/19 02:16:22;;;;;;;12.93;6.30;;;7.50;99.90;;;;;;5028302;28;20194;-81
2020/12/19 02:18:48;;;;;;;11.57;5.97;;;7.30;99.90;;;;;;5029625;28;20308;-78
2020/12/19 02:21:16;;;;;;;10.20;6.53;;;7.30;99.90;;;;;;5018810;28;20233;-80
2020/12/19 02:23:43;;;;;;;9.83;6.67;;;7.30;99.90;;;;;;5015238;28;20225;-80
2020/12/19 02:26:09;;;;;;;10.67;6.63;;;7.40;99.90;;;;;;5022999;28;20272;-79
2020/12/19 02:28:35;;;;;;;15.40;7.23;;;7.40;99.90;;;;;;5022573;28;20249;-81
2020/12/19 02:31:02;;;;;;;10.50;6.63;;;7.40;99.90;;;;;;5021520;28;20205;-80
2020/12/19 02:33:28;;;;;;;12.47;7.37;;;7.20;99.90;;;;;;5042501;28;22316;-79
2020/12/19 02:36:06;;;;;;;11.83;6.80;;;7.20;99.90;;;;;;5062566;28;20207;-80
2020/12/19 02:38:32;;;;;;;11.17;7.00;;;7.10;99.90;;;;;;5030272;28;20217;-79
2020/12/19 02:40:58;;;;;;;10.67;7.23;;;7.10;99.90;;;;;;5034768;28;20218;-80
2020/12/19 02:43:25;;;;;;;14.43;7.63;;;7.10;99.90;;;;;;5023594;28;20214;-80
2020/12/19 02:45:51;;;;;;;10.60;7.40;;;7.00;99.90;;;;;;5030325;28;20225;-80
2020/12/19 02:48:18;;;;;;;11.43;7.37;;;6.90;99.90;;;;;;5040744;28;20219;-79
2020/12/19 02:50:44;;;;;;;11.40;6.93;;;6.90;99.90;;;;;;5022344;28;20564;-80
2020/12/19 02:53:11;;;;;;;10.60;6.23;;;7.00;99.90;;;;;;5026377;28;20224;-80
2020/12/19 02:55:38;;;;;;;11.37;6.70;;;6.90;99.90;;;;;;5017373;28;20269;-80
2020/12/19 02:58:04;;;;;;;12.63;7.17;;;6.80;99.90;;;;;;5015475;28;20228;-80
2020/12/19 03:00:30;;;;;;;11.93;7.37;;;6.90;99.90;;;;;;5017127;28;20198;-81
2020/12/19 03:02:57;;;;;;;11.47;7.13;;;6.90;99.90;;;;;;5017016;28;21058;-82
2020/12/19 03:05:23;;;;;;;10.03;6.27;;;6.80;99.90;;;;;;5012782;28;20264;-79
2020/12/19 03:07:49;;;;;;;10.97;6.87;;;6.80;99.90;;;;;;5028139;28;20219;-80
2020/12/19 03:10:16;;;;;;;11.43;7.40;;;6.90;99.90;;;;;;5028482;28;20229;-80
2020/12/19 03:12:43;;;;;;;11.03;6.70;;;6.80;99.90;;;;;;5045920;28;20234;-80
2020/12/19 03:15:09;;;;;;;13.50;7.07;;;6.70;99.90;;;;;;5019809;28;20202;-81
2020/12/19 03:17:35;;;;;;;10.37;6.57;;;6.70;99.90;;;;;;5023582;28;20243;-81
2020/12/19 03:20:03;;;;;;;11.90;6.63;;;6.80;99.90;;;;;;5014489;28;20206;-81
2020/12/19 03:22:29;;;;;;;11.37;7.23;;;6.70;99.90;;;;;;5028629;28;20270;-81
2020/12/19 03:24:56;;;;;;;11.17;7.10;;;6.70;99.90;;;;;;5032959;28;20210;-81
2020/12/19 03:27:22;;;;;;;10.40;6.57;;;6.60;99.90;;;;;;5018142;28;20202;-80
2020/12/19 03:29:48;;;;;;;12.70;6.43;;;6.70;99.90;;;;;;5012340;28;20200;-81
2020/12/19 03:32:15;;;;;;;9.83;6.80;;;6.80;99.90;;;;;;5020340;28;20286;-82
2020/12/19 03:34:42;;;;;;;12.53;7.17;;;6.80;99.90;;;;;;5012253;28;20631;-80
2020/12/19 03:37:08;;;;;;;10.07;6.40;;;6.90;99.90;;;;;;5023420;28;20274;-80
2020/12/19 03:39:34;;;;;;;8.97;6.07;;;6.70;99.90;;;;;;5034787;28;20282;-81
2020/12/19 03:42:01;;;;;;;11.47;6.27;;;6.70;99.90;;;;;;5019707;28;20579;-81
2020/12/19 03:44:27;;;;;;;12.33;7.07;;;6.80;99.90;;;;;;5020759;28;20253;-80
2020/12/19 03:46:53;;;;;;;11.37;6.23;;;6.70;99.90;;;;;;5046226;28;20211;-81
2020/12/19 03:49:20;;;;;;;11.37;7.23;;;6.80;99.90;;;;;;5040641;28;20237;-81
2020/12/19 03:51:46;;;;;;;13.37;7.67;;;6.80;99.90;;;;;;5021618;28;20650;-81
2020/12/19 03:54:12;;;;;;;9.40;6.70;;;6.80;99.90;;;;;;5027233;28;20221;-80
2020/12/19 03:56:39;;;;;;;13.33;7.50;;;6.80;99.90;;;;;;5021152;28;20721;-81
2020/12/19 03:59:05;;;;;;;10.90;6.83;;;6.80;99.90;;;;;;5031843;28;20226;-81
2020/12/19 04:01:31;;;;;;;13.20;7.30;;;6.70;99.90;;;;;;5019836;28;20208;-82
2020/12/19 04:03:57;;;;;;;11.70;7.17;;;6.80;99.90;;;;;;5025130;28;20190;-81
2020/12/19 04:06:24;;;;;;;13.03;7.97;;;6.90;99.90;;;;;;5028012;28;20255;-81
2020/12/19 04:08:51;;;;;;;11.40;7.50;;;6.80;99.90;;;;;;5023785;28;20269;-80
2020/12/19 04:11:17;;;;;;;9.50;7.30;;;6.80;99.90;;;;;;5019184;28;20235;-81
2020/12/19 04:13:44;;;;;;;16.70;8.07;;;6.80;99.90;;;;;;5034894;28;20226;-81
2020/12/19 04:16:10;;;;;;;12.10;8.13;;;6.80;99.90;;;;;;5020900;28;20609;-81
2020/12/19 04:18:36;;;;;;;11.07;6.77;;;6.80;99.90;;;;;;5032680;28;20573;-80
2020/12/19 04:21:06;;;;;;;13.63;7.20;;;6.70;99.90;;;;;;5024094;28;20196;-81
2020/12/19 04:23:33;;;;;;;13.63;7.47;;;6.70;99.90;;;;;;5022357;28;20311;-81
2020/12/19 04:26:00;;;;;;;9.73;6.97;;;6.60;99.90;;;;;;5024646;28;20208;-80
2020/12/19 04:28:27;;;;;;;12.63;6.73;;;6.60;99.90;;;;;;5015078;28;20275;-80
2020/12/19 04:30:54;;;;;;;14.53;8.00;;;6.70;99.90;;;;;;5035912;28;20606;-80
2020/12/19 04:33:21;;;;;;;12.20;8.00;;;6.60;99.90;;;;;;5008736;28;20273;-80
2020/12/19 04:35:47;;;;;;;11.23;6.57;;;6.60;99.90;;;;;;5010202;28;20251;-80
2020/12/19 04:38:15;;;;;;;10.90;6.83;;;6.60;99.90;;;;;;5036103;28;20282;-82
2020/12/19 04:40:41;;;;;;;11.97;7.23;;;6.70;99.90;;;;;;5012109;28;20621;-80
2020/12/19 04:43:19;;;;;;;11.77;7.13;;;6.60;99.90;;;;;;5028621;28;20268;-80
2020/12/19 04:45:48;;;;;;;10.13;6.93;;;6.50;99.90;;;;;;5033055;28;20264;-80
2020/12/19 04:48:18;;;;;;;12.57;7.53;;;6.60;99.90;;;;;;5027309;28;20199;-78
2020/12/19 04:50:47;;;;;;;11.50;7.77;;;6.60;99.90;;;;;;5021758;28;20201;-78
2020/12/19 04:53:19;;;;;;;12.30;7.33;;;6.60;99.90;;;;;;5037160;28;20208;-80
2020/12/19 04:55:46;;;;;;;11.03;7.17;;;6.60;99.90;;;;;;5038805;28;20228;-80
2020/12/19 04:58:15;;;;;;;11.53;7.53;;;6.60;99.90;;;;;;5034370;28;20204;-79
2020/12/19 05:00:42;;;;;;;11.93;7.20;;;6.50;99.90;;;;;;5036970;28;20220;-80
2020/12/19 05:03:09;;;;;;;13.17;7.63;;;6.40;99.90;;;;;;5034496;28;20617;-81
2020/12/19 05:05:43;;;;;;;12.03;7.67;;;6.40;99.90;;;;;;5024243;28;20302;-81
2020/12/19 05:08:10;;;;;;;14.67;8.73;;;6.40;99.90;;;;;;5021147;28;20205;-81
2020/12/19 05:10:38;;;;;;;12.73;7.57;;;6.50;99.90;;;;;;5036132;28;20220;-78
2020/12/19 05:13:04;;;;;;;12.87;7.53;;;6.50;99.90;;;;;;5014113;28;20212;-81
2020/12/19 05:15:31;;;;;;;11.83;7.20;;;6.50;99.90;;;;;;5021745;28;20267;-81
2020/12/19 05:17:59;;;;;;;14.73;8.43;;;6.50;99.90;;;;;;5017764;28;20261;-82
2020/12/19 05:20:30;;;;;;;13.73;8.17;;;6.50;99.90;;;;;;5024527;28;20193;-83
2020/12/19 05:22:57;;;;;;;12.23;7.47;;;6.40;99.90;;;;;;5018640;28;20607;-82
2020/12/19 05:25:26;;;;;;;13.07;7.87;;;6.40;99.90;;;;;;5027575;28;20297;-83
2020/12/19 05:27:52;;;;;;;10.83;6.97;;;6.40;99.90;;;;;;5016262;28;20287;-82
2020/12/19 05:30:20;;;;;;;12.70;7.60;;;6.40;99.90;;;;;;5030241;28;20196;-82
2020/12/19 05:32:51;;;;;;;11.87;7.87;;;6.40;99.90;;;;;;5028598;28;20201;-81
2020/12/19 05:35:23;;;;;;;11.30;7.03;;;6.40;99.90;;;;;;5019568;28;20202;-81
2020/12/19 05:38:05;;;;;;;9.50;6.77;;;6.50;99.90;;;;;;5065346;28;20311;-81
2020/12/19 05:40:33;;;;;;;14.43;7.63;;;6.40;99.90;;;;;;5041809;28;20197;-80
2020/12/19 05:43:01;;;;;;;12.57;7.77;;;6.40;99.90;;;;;;5040224;28;20197;-81
2020/12/19 05:45:28;;;;;;;10.33;6.60;;;6.40;99.90;;;;;;5035893;28;20211;-81
2020/12/19 05:47:55;;;;;;;11.00;7.57;;;6.40;99.90;;;;;;5028474;28;20212;-81
2020/12/19 05:50:22;;;;;;;14.80;7.63;;;6.40;99.90;;;;;;5038227;28;20271;-82
2020/12/19 05:52:49;;;;;;;11.23;7.27;;;6.40;99.90;;;;;;5040279;28;20631;-81
2020/12/19 05:55:18;;;;;;;13.87;7.53;;;6.40;99.90;;;;;;5046923;28;20551;-80
2020/12/19 05:57:45;;;;;;;12.37;7.43;;;6.40;99.90;;;;;;5043375;28;20197;-78
2020/12/19 06:00:14;;;;;;;12.60;7.37;;;6.30;99.90;;;;;;5029543;28;20712;-80
2020/12/19 06:02:42;;;;;;;13.37;8.17;;;6.50;99.90;;;;;;5042619;28;20313;-81
2020/12/19 06:05:10;;;;;;;14.40;7.57;;;6.50;99.90;;;;;;5041433;28;20205;-80
2020/12/19 06:07:45;;;;;;;11.33;7.40;;;6.50;99.90;;;;;;5040724;28;20189;-80
2020/12/19 06:10:15;;;;;;;11.77;6.17;;;6.40;99.90;;;;;;5043881;28;20232;-80
2020/12/19 06:13:03;;;;;;;12.53;7.10;;;6.50;99.90;;;;;;5041751;28;20196;-80
2020/12/19 06:16:00;;;;;;;12.57;7.47;;;6.50;99.90;;;;;;5035545;28;20287;-82
2020/12/19 06:18:47;;;;;;;14.17;6.93;;;6.40;99.90;;;;;;5037518;28;20255;-81
2020/12/19 06:21:17;;;;;;;11.83;7.57;;;6.50;99.90;;;;;;5042904;28;20193;-81
2020/12/19 06:23:44;;;;;;;10.40;6.40;;;6.50;99.90;;;;;;5024607;28;20260;-80
2020/12/19 06:26:12;;;;;;;15.60;6.60;;;6.50;99.90;;;;;;5017703;28;20201;-81
2020/12/19 06:28:42;;;;;;;8.47;5.50;;;6.50;99.90;;;;;;5021264;28;20201;-80
2020/12/19 06:31:21;;;;;;;12.07;7.57;;;6.50;99.90;;;;;;5066161;28;20609;-81
2020/12/19 06:33:49;;;;;;;11.77;6.50;;;6.50;99.90;;;;;;5022000;28;20626;-81
2020/12/19 06:36:19;;;;;;;9.03;6.17;;;6.40;99.90;;;;;;5009359;28;20201;-80
2020/12/19 06:38:49;;;;;;;11.17;7.47;;;6.40;99.90;;;;;;5024228;28;20569;-80
2020/12/19 06:41:46;;;;;;;10.37;6.73;;;6.40;99.90;;;;;;5021285;28;20711;-80
2020/12/19 06:44:14;;;;;;;10.17;7.07;;;6.50;99.90;;;;;;5023959;28;20226;-80
2020/12/19 06:46:41;;;;;;;10.53;7.33;;;6.50;99.90;;;;;;5031247;28;20214;-80
2020/12/19 06:49:22;;;;;;;11.90;7.43;;;6.30;99.90;;;;;;5029266;28;20200;-81
2020/12/19 06:51:59;;;;;;;10.93;6.63;;;6.50;99.90;;;;;;5025361;28;20249;-81
2020/12/19 06:54:32;;;;;;;11.00;6.93;;;6.40;99.90;;;;;;5030112;28;20222;-80
2020/12/19 06:56:59;;;;;;;16.23;7.03;;;6.40;99.90;;;;;;5051102;28;20210;-79
2020/12/19 06:59:27;;;;;;;12.50;7.03;;;6.60;99.90;;;;;;5035479;28;20211;-80
2020/12/19 07:02:16;;;;;;;10.57;7.17;;;6.50;99.90;;;;;;5025509;28;20582;-78
2020/12/19 07:04:42;;;;;;;11.20;6.57;;;6.60;99.90;;;;;;5039737;28;20198;-79
2020/12/19 07:07:12;;;;;;;9.90;7.10;;;6.60;99.90;;;;;;5043329;28;20305;-78
2020/12/19 07:09:39;;;;;;;14.50;6.77;;;6.60;99.90;;;;;;5034956;28;20238;-78
2020/12/19 07:12:25;;;;;;;10.80;6.70;;;6.60;99.90;;;;;;5038052;28;20348;-81
2020/12/19 07:14:52;;;;;;;10.80;6.70;;;6.50;99.90;;;;;;5059578;28;20209;-82
2020/12/19 07:17:19;;;;;;;11.60;6.60;;;6.50;99.90;;;;;;5020111;28;20312;-81
2020/12/19 07:19:46;;;;;;;14.30;6.80;;;6.50;99.90;;;;;;5023920;28;20305;-81
2020/12/19 07:22:13;;;;;;;11.53;7.13;;;6.70;99.90;;;;;;5016428;28;20277;-82
2020/12/19 07:24:40;;;;;;;9.50;6.23;;;6.70;99.90;;;;;;5029912;28;20284;-81
2020/12/19 07:27:06;;;;;;;11.87;7.13;;;6.70;99.90;;;;;;5036542;28;20512;-81
2020/12/19 07:29:32;;;;;;;13.07;7.30;;;6.70;99.90;;;;;;5037304;28;20231;-80
2020/12/19 07:32:00;;;;;;;11.43;6.37;;;6.70;99.90;;;;;;5037631;28;20227;-80
2020/12/19 07:34:29;;;;;;;10.57;6.23;;;6.70;99.90;;;;;;5028807;28;20207;-80
2020/12/19 07:36:56;;;;;;;13.47;6.90;;;6.70;99.90;;;;;;5035604;28;20215;-80
2020/12/19 07:39:23;;;;;;;11.27;6.80;;;6.70;99.90;;;;;;5041563;28;20225;-80
2020/12/19 07:42:07;;;;;;;13.37;6.67;;;6.70;99.90;;;;;;5034463;28;20210;-79
2020/12/19 07:44:35;;;;;;;11.23;6.97;;;6.80;99.90;;;;;;5040196;28;20571;-80
2020/12/19 07:47:09;;;;;;;11.43;7.20;;;6.80;99.90;;;;;;5038777;28;20605;-80
2020/12/19 07:49:44;;;;;;;9.97;6.50;;;6.80;99.90;;;;;;5040542;28;20255;-80
2020/12/19 07:52:16;;;;;;;10.10;6.20;;;6.80;99.90;;;;;;5032767;28;20237;-80
2020/12/19 07:54:58;;;;;;;10.27;6.40;;;6.90;99.90;;;;;;5033953;28;20212;-80
2020/12/19 07:57:27;;;;;;;11.27;6.60;;;6.90;99.90;;;;;;5033982;28;20205;-81
2020/12/19 07:59:54;;;;;;;11.93;6.30;;;7.00;99.90;;;;;;5035561;28;20270;-80
2020/12/19 08:02:22;;;;;;;11.13;7.03;;;7.00;99.90;;;;;;5021856;28;20199;-79
2020/12/19 08:04:50;;;;;;;12.30;7.50;;;7.00;99.90;;;;;;5041134;28;20211;-79
2020/12/19 08:07:18;;;;;;;14.43;7.90;;;6.90;99.90;;;;;;5039277;28;20197;-79
2020/12/19 08:09:45;;;;;;;11.40;6.50;;;6.90;99.90;;;;;;5030698;28;20369;-79
2020/12/19 08:12:12;;;;;;;11.30;7.43;;;7.00;99.90;;;;;;5027791;28;20201;-78
2020/12/19 08:14:40;;;;;;;11.13;7.00;;;7.10;99.90;;;;;;5050722;28;20210;-79
2020/12/19 08:17:14;;;;;;;11.33;6.97;;;7.10;99.90;;;;;;5028942;28;20234;-79
2020/12/19 08:19:52;;;;;;;10.17;6.50;;;7.10;99.90;;;;;;5026006;28;20223;-79
2020/12/19 08:22:20;;;;;;;10.63;6.23;;;7.30;99.90;;;;;;5023035;28;20248;-80
2020/12/19 08:24:58;;;;;;;11.60;6.73;;;7.40;99.90;;;;;;5011112;28;20249;-83
2020/12/19 08:27:35;;;;;;;10.97;6.17;;;7.50;99.90;;;;;;5008863;28;20204;-84
2020/12/19 08:30:11;;;;;;;10.70;6.63;;;7.50;99.90;;;;;;5028438;28;20221;-81
2020/12/19 08:32:45;;;;;;;10.43;6.60;;;7.60;99.90;;;;;;5026024;28;20365;-80
2020/12/19 08:35:41;;;;;;;8.23;5.50;;;7.70;99.90;;;;;;5037665;28;20196;-79
2020/12/19 08:38:09;;;;;;;9.77;6.13;;;7.70;99.90;;;;;;5044653;28;20664;-80
2020/12/19 08:40:44;;;;;;;10.67;6.80;;;7.70;99.90;;;;;;5034528;28;20203;-81
2020/12/19 08:43:13;;;;;;;12.47;5.83;;;7.80;99.90;;;;;;5017907;28;20562;-76
2020/12/19 08:45:43;;;;;;;10.43;5.67;;;7.80;99.90;;;;;;5008582;28;20542;-75
2020/12/19 08:48:26;;;;;;;9.23;5.13;;;7.90;99.90;;;;;;5009342;28;20203;-76
2020/12/19 08:50:54;;;;;;;10.00;6.43;;;8.00;99.90;;;;;;5017676;28;20210;-77
2020/12/19 08:53:25;;;;;;;12.03;6.00;;;8.30;99.90;;;;;;5025985;28;20340;-76
2020/12/19 08:55:53;;;;;;;8.30;6.13;;;8.50;99.90;;;;;;5021841;28;20261;-76
2020/12/19 08:58:23;;;;;;;9.93;5.73;;;8.50;99.90;;;;;;5007218;28;20219;-76
2020/12/19 09:00:50;;;;;;;8.53;6.30;;;8.50;99.90;;;;;;5019160;28;20569;-76
2020/12/19 09:03:33;;;;;;;10.87;7.00;;;8.50;99.90;;;;;;5032368;28;20199;-75
2020/12/19 09:06:10;;;;;;;10.13;6.40;;;8.50;99.90;;;;;;5052536;28;20276;-76
2020/12/19 09:08:39;;;;;;;10.07;6.00;;;8.70;99.90;;;;;;5016743;28;20214;-76
2020/12/19 09:11:29;;;;;;;11.83;6.60;;;8.90;99.90;;;;;;5023450;28;20633;-75
2020/12/19 09:14:05;;;;;;;9.13;5.80;;;9.10;99.90;;;;;;5023211;28;20212;-76
2020/12/19 09:16:44;;;;;;;10.37;6.27;;;9.00;99.90;;;;;;5010591;28;20656;-76
2020/12/19 09:19:13;;;;;;;9.60;5.33;;;9.10;99.90;;;;;;5021859;28;20230;-75
2020/12/19 09:21:39;;;;;;;9.33;5.30;;;9.30;99.90;;;;;;5025376;28;20243;-74
2020/12/19 09:24:06;;;;;;;9.57;5.57;;;9.60;99.90;;;;;;5010022;28;20223;-74
2020/12/19 09:26:32;;;;;;;7.20;5.50;;;9.90;99.90;;;;;;5023143;28;20268;-74
2020/12/19 09:28:58;;;;;;;9.17;5.20;;;10.20;99.90;;;;;;5025908;28;20282;-75
2020/12/19 09:31:28;;;;;;;9.53;6.13;;;10.20;99.90;;;;;;5011694;28;21813;-75
2020/12/19 09:33:54;;;;;;;9.40;5.77;;;10.10;99.90;;;;;;5025750;28;20682;-75
2020/12/19 09:36:21;;;;;;;10.60;6.00;;;10.00;99.90;;;;;;5024189;28;20270;-75
2020/12/19 09:38:48;;;;;;;7.37;5.40;;;10.10;99.90;;;;;;5019407;28;20224;-76
2020/12/19 09:41:14;;;;;;;7.33;5.43;;;10.10;99.90;;;;;;5024137;28;20233;-76
2020/12/19 09:43:41;;;;;;;9.97;5.37;;;9.90;99.90;;;;;;5019016;28;20291;-76
2020/12/19 09:46:12;;;;;;;8.83;5.60;;;10.00;99.90;;;;;;5032574;28;20213;-76
2020/12/19 09:48:38;;;;;;;6.87;5.03;;;10.10;99.90;;;;;;5009903;28;20281;-76
2020/12/19 09:51:05;;;;;;;9.23;5.30;;;10.10;99.90;;;;;;5020918;28;20275;-77
2020/12/19 09:53:32;;;;;;;8.80;5.13;;;10.10;99.90;;;;;;5017619;28;20215;-77
2020/12/19 09:55:58;;;;;;;8.03;5.07;;;10.30;99.90;;;;;;5029402;28;20328;-78
2020/12/19 09:58:25;;;;;;;8.60;5.03;;;10.40;99.90;;;;;;5015329;28;20219;-79
2020/12/19 10:00:51;;;;;;;5.63;4.73;;;10.60;99.90;;;;;;5022548;28;20257;-77
2020/12/19 10:03:18;;;;;;;10.87;5.97;;;10.70;99.90;;;;;;5036325;28;20218;-77
2020/12/19 10:05:44;;;;;;;8.63;5.30;;;10.90;99.90;;;;;;5053233;28;20269;-78
2020/12/19 10:08:11;;;;;;;8.43;4.83;;;10.70;99.90;;;;;;5009262;28;20207;-78
2020/12/19 10:10:44;;;;;;;6.30;4.17;;;10.70;99.90;;;;;;5043693;28;20196;-78
2020/12/19 10:13:13;;;;;;;7.87;3.90;;;10.80;99.90;;;;;;5019843;28;20324;-79
2020/12/19 10:15:40;;;;;;;7.10;4.17;;;10.90;99.90;;;;;;5020551;28;20278;-77
2020/12/19 10:18:07;;;;;;;6.43;3.77;;;10.90;99.90;;;;;;5020824;28;20276;-76
2020/12/19 10:20:37;;;;;;;6.10;3.70;;;10.80;99.90;;;;;;5018726;28;20253;-76
2020/12/19 10:23:03;;;;;;;6.23;4.40;;;10.80;99.90;;;;;;5034605;28;20613;-77
2020/12/19 10:25:29;;;;;;;4.63;3.20;;;10.80;99.90;;;;;;5022181;28;20195;-77
2020/12/19 10:27:56;;;;;;;5.20;3.60;;;10.90;99.90;;;;;;5021608;28;20228;-76
2020/12/19 10:30:22;;;;;;;4.87;3.37;;;10.90;99.90;;;;;;5017269;28;20227;-75
2020/12/19 10:32:48;;;;;;;4.13;3.40;;;10.80;99.90;;;;;;5019203;28;20200;-76
2020/12/19 10:35:16;;;;;;;6.13;3.43;;;10.90;99.90;;;;;;5021209;28;20210;-75
2020/12/19 10:37:42;;;;;;;6.47;3.10;;;11.00;99.90;;;;;;5021592;28;20247;-75
2020/12/19 10:40:08;;;;;;;7.27;4.00;;;11.00;99.90;;;;;;5018291;28;20300;-75
2020/12/19 10:42:34;;;;;;;5.50;3.53;;;11.00;99.90;;;;;;5020683;28;20318;-74
2020/12/19 10:45:01;;;;;;;4.83;3.50;;;11.00;99.90;;;;;;5018887;28;20284;-74
2020/12/19 10:47:27;;;;;;;9.70;3.47;;;11.00;99.90;;;;;;5006820;28;20209;-75
2020/12/19 10:49:54;;;;;;;5.13;3.80;;;11.00;99.90;;;;;;5019441;28;20702;-74
2020/12/19 10:52:20;;;;;;;5.23;3.50;;;11.10;99.90;;;;;;5016938;28;20201;-73
2020/12/19 10:54:46;;;;;;;7.90;4.07;;;11.10;99.90;;;;;;5015172;28;20289;-75
2020/12/19 10:57:13;;;;;;;6.67;3.40;;;11.20;99.90;;;;;;5008091;28;20648;-74
2020/12/19 10:59:39;;;;;;;5.70;3.77;;;11.40;99.90;;;;;;5024211;28;20269;-74
2020/12/19 11:02:06;;;;;;;5.10;3.13;;;11.50;99.90;;;;;;5006687;28;21506;-74
2020/12/19 11:04:32;;;;;;;6.13;3.80;;;11.40;99.90;;;;;;5020278;28;20214;-75
2020/12/19 11:06:59;;;;;;;4.70;3.43;;;11.40;99.90;;;;;;5004703;28;20626;-75
2020/12/19 11:09:25;;;;;;;8.83;4.23;;;11.40;99.90;;;;;;5042690;28;20243;-74
2020/12/19 11:11:53;;;;;;;5.30;3.50;;;11.40;99.90;;;;;;5005928;28;20284;-74
2020/12/19 11:14:25;;;;;;;4.80;2.97;;;11.40;99.90;;;;;;5005549;28;20617;-74
2020/12/19 11:16:56;;;;;;;5.53;3.67;;;11.40;99.90;;;;;;5018788;28;20276;-74
2020/12/19 11:19:35;;;;;;;7.10;3.93;;;11.50;99.90;;;;;;5019839;28;20546;-74
2020/12/19 11:22:01;;;;;;;6.43;3.70;;;11.50;99.90;;;;;;5018163;28;20258;-74
2020/12/19 11:24:27;;;;;;;6.07;3.03;;;11.70;99.90;;;;;;5019691;28;20227;-74
2020/12/19 11:26:54;;;;;;;4.77;3.17;;;11.90;99.90;;;;;;5033595;28;20215;-75
2020/12/19 11:29:21;;;;;;;8.17;3.20;;;11.90;99.90;;;;;;5021607;28;20221;-74
2020/12/19 11:31:48;;;;;;;6.03;3.00;;;12.00;99.90;;;;;;5028101;28;20609;-75
2020/12/19 11:34:15;;;;;;;3.03;2.40;;;12.00;99.90;;;;;;5015706;28;20206;-75
2020/12/19 11:36:41;;;;;;;3.93;2.43;;;12.00;99.90;;;;;;5018637;28;20249;-74
2020/12/19 11:39:10;;;;;;;3.30;2.30;;;12.00;99.90;;;;;;5029070;28;20234;-75
2020/12/19 11:41:41;;;;;;;3.93;2.27;;;12.00;99.90;;;;;;5011313;28;20283;-75
2020/12/19 11:44:09;;;;;;;2.27;1.90;;;12.10;99.90;;;;;;5016237;28;20203;-75
2020/12/19 11:46:36;;;;;;;3.20;2.20;;;12.20;99.90;;;;;;5024446;28;20561;-75
2020/12/19 11:49:02;;;;;;;3.27;1.93;;;12.10;99.90;;;;;;5015623;28;20651;-75
2020/12/19 11:51:30;;;;;;;3.37;2.43;;;12.10;99.90;;;;;;5022345;28;20241;-76
2020/12/19 11:54:01;;;;;;;3.13;1.83;;;12.10;99.90;;;;;;5009751;28;20898;-75
2020/12/19 11:56:29;;;;;;;2.87;1.57;;;12.10;99.90;;;;;;5020027;28;20293;-74
2020/12/19 11:58:55;;;;;;;1.90;1.70;;;12.20;99.90;;;;;;5002699;28;20979;-74
2020/12/19 12:01:29;;;;;;;2.57;1.60;;;12.20;99.90;;;;;;5019113;28;20229;-75
2020/12/19 12:03:57;;;;;;;3.00;1.73;;;12.20;99.90;;;;;;5016589;28;20268;-75
2020/12/19 12:06:30;;;;;;;4.43;2.63;;;12.20;99.90;;;;;;5021230;28;20562;-75
2020/12/19 12:08:58;;;;;;;4.97;1.80;;;12.20;99.90;;;;;;5018872;28;20635;-75
2020/12/19 12:11:28;;;;;;;1.90;1.50;;;12.20;99.90;;;;;;5016062;28;20595;-75
2020/12/19 12:13:56;;;;;;;2.47;2.10;;;12.20;99.90;;;;;;5029261;28;21392;-74
2020/12/19 12:16:25;;;;;;;2.43;1.70;;;12.20;99.90;;;;;;5023710;28;20259;-75
2020/12/19 12:18:52;;;;;;;4.73;1.80;;;12.20;99.90;;;;;;5019507;28;20305;-74
2020/12/19 12:21:18;;;;;;;3.40;2.50;;;12.20;99.90;;;;;;5011244;28;20286;-75
2020/12/19 12:23:45;;;;;;;2.87;1.97;;;12.20;99.90;;;;;;5009587;28;20215;-74
2020/12/19 12:26:23;;;;;;;4.77;2.03;;;12.10;99.90;;;;;;5001686;28;20523;-74
2020/12/19 12:28:50;;;;;;;5.87;2.07;;;12.10;99.90;;;;;;5017045;28;20206;-74
2020/12/19 12:31:24;;;;;;;3.53;2.20;;;12.20;99.90;;;;;;5025021;28;22791;-75
2020/12/19 12:33:51;;;;;;;3.90;1.87;;;12.00;99.90;;;;;;5029871;28;20258;-75
2020/12/19 12:36:19;;;;;;;2.57;1.70;;;12.10;99.90;;;;;;5017970;28;20261;-74
2020/12/19 12:38:45;;;;;;;3.43;2.23;;;12.00;99.90;;;;;;5017554;28;20293;-74
2020/12/19 12:41:12;;;;;;;4.63;1.90;;;12.00;99.90;;;;;;5018646;28;20201;-74
2020/12/19 12:43:38;;;;;;;2.37;1.80;;;12.00;99.90;;;;;;5023489;28;20234;-76
2020/12/19 12:46:12;;;;;;;2.90;2.00;;;12.00;99.90;;;;;;5024767;28;20208;-75
2020/12/19 12:48:38;;;;;;;2.07;1.87;;;12.00;99.90;;;;;;5021961;28;20665;-78
2020/12/19 12:51:09;;;;;;;4.30;2.00;;;12.00;99.90;;;;;;5009691;28;20221;-76
2020/12/19 12:53:36;;;;;;;3.07;2.00;;;11.90;99.90;;;;;;5017460;28;20996;-75
2020/12/19 12:56:04;;;;;;;3.17;1.87;;;11.90;99.90;;;;;;5020037;28;20410;-75